Time;durP1;ratioP1;P1;durP2;ratioP2;P2;SDS_P1;SDS_P2;PMS_P1;PMS_P2;Temp;Humidity;BMP_temperature;BMP_pressure;BME280_temperature;BME280_humidity;BME280_pressure;Samples;Min_cycle;Max_cycle;Signal;HPM_P1;HPM_P2
2023/07/28 00:00:21;;;;;;;9.52;3.90;;;17.50;99.90;;;;;;5036784;28;20498;-89
2023/07/28 00:02:56;;;;;;;5.55;3.95;;;19.10;99.90;;;;;;5016574;28;20048;-89
2023/07/28 00:05:25;;;;;;;8.65;4.45;;;18.30;99.90;;;;;;5016362;28;20049;-89
2023/07/28 00:07:59;;;;;;;11.80;5.05;;;18.30;99.90;;;;;;5016428;28;20061;-89
2023/07/28 00:10:28;;;;;;;7.82;4.75;;;18.40;99.90;;;;;;5034937;28;20037;-88
2023/07/28 00:13:02;;;;;;;9.88;4.65;;;18.40;99.90;;;;;;5017077;28;20037;-89
2023/07/28 00:15:28;;;;;;;6.80;3.60;;;18.40;99.90;;;;;;5016487;28;20037;-88
2023/07/28 00:17:56;;;;;;;5.32;3.72;;;18.40;99.90;;;;;;5016018;28;20026;-88
2023/07/28 00:20:21;;;;;;;6.65;4.13;;;18.50;99.90;;;;;;5019679;28;20026;-88
2023/07/28 00:22:53;;;;;;;10.38;4.13;;;18.50;99.90;;;;;;5020032;28;20033;-88
2023/07/28 00:25:22;;;;;;;11.52;4.78;;;18.50;99.90;;;;;;5015163;28;20050;-88
2023/07/28 00:27:53;;;;;;;9.20;4.57;;;18.50;99.90;;;;;;5015646;28;20034;-88
2023/07/28 00:30:23;;;;;;;8.98;5.30;;;18.10;99.90;;;;;;5015929;28;20100;-88
2023/07/28 00:32:51;;;;;;;9.85;5.13;;;18.50;99.90;;;;;;5015116;28;20481;-88
2023/07/28 00:35:23;;;;;;;7.95;6.38;;;18.40;99.90;;;;;;5015895;28;20097;-88
2023/07/28 00:37:54;;;;;;;12.23;6.13;;;18.50;99.90;;;;;;5015518;28;20044;-88
2023/07/28 00:40:26;;;;;;;11.07;5.45;;;17.20;99.90;;;;;;5014879;28;20471;-88
2023/07/28 00:42:56;;;;;;;9.88;5.53;;;18.50;99.90;;;;;;5015674;28;20019;-88
2023/07/28 00:45:34;;;;;;;10.30;5.75;;;18.50;99.90;;;;;;5014834;28;20022;-88
2023/07/28 00:48:03;;;;;;;15.80;5.50;;;18.50;99.90;;;;;;5015557;28;20034;-88
2023/07/28 00:50:44;;;;;;;14.55;6.28;;;18.50;99.90;;;;;;5015655;28;20036;-88
2023/07/28 00:53:10;;;;;;;16.35;7.90;;;18.50;99.90;;;;;;5014917;28;20025;-88
2023/07/28 00:55:42;;;;;;;14.25;7.07;;;18.50;99.90;;;;;;5013521;28;20137;-89
2023/07/28 00:58:11;;;;;;;12.65;7.30;;;18.50;99.90;;;;;;5015386;28;20026;-89
2023/07/28 01:00:36;;;;;;;19.25;7.65;;;19.30;99.90;;;;;;5017474;28;20080;-89
2023/07/28 01:06:17;;;;;;;17.83;8.35;;;18.50;99.90;;;;;;5266573;22;20463;-90
2023/07/28 01:11:23;;;;;;;21.10;10.13;;;18.50;99.90;;;;;;5067283;22;20067;-86
2023/07/28 01:14:00;;;;;;;20.90;9.63;;;18.50;99.90;;;;;;5053891;28;20040;-88
2023/07/28 01:16:29;;;;;;;20.88;9.52;;;18.50;99.90;;;;;;5054822;28;20036;-88
2023/07/28 01:19:04;;;;;;;20.63;9.18;;;18.40;99.90;;;;;;5054888;28;20104;-87
2023/07/28 01:21:37;;;;;;;19.27;8.60;;;18.40;99.90;;;;;;5053906;28;20036;-88
2023/07/28 01:24:36;;;;;;;15.63;8.25;;;18.80;99.90;;;;;;5054892;28;20025;-88
2023/07/28 01:27:08;;;;;;;16.20;8.57;;;18.40;99.90;;;;;;5054546;28;20071;-88
2023/07/28 01:29:36;;;;;;;19.55;8.15;;;18.40;99.90;;;;;;5053742;28;20393;-88
2023/07/28 01:32:17;;;;;;;20.50;8.73;;;18.50;99.90;;;;;;5042002;28;20327;-88
2023/07/28 01:34:46;;;;;;;27.25;9.82;;;18.40;99.90;;;;;;5053500;28;20431;-87
2023/07/28 01:37:30;;;;;;;16.45;8.85;;;18.10;99.90;;;;;;5061451;22;20536;-88
2023/07/28 01:40:05;;;;;;;16.33;8.02;;;18.60;99.90;;;;;;5034012;28;20128;-89
2023/07/28 01:42:40;;;;;;;24.42;8.57;;;18.50;99.90;;;;;;5033655;28;20030;-88
2023/07/28 01:45:17;;;;;;;16.80;9.02;;;18.60;99.90;;;;;;5036026;28;20025;-88
2023/07/28 01:47:57;;;;;;;17.27;9.55;;;18.50;99.90;;;;;;5026797;28;20029;-89
2023/07/28 01:50:25;;;;;;;23.73;11.02;;;18.80;99.90;;;;;;5033511;28;20029;-88
2023/07/28 01:53:06;;;;;;;23.35;10.43;;;18.50;99.90;;;;;;5033842;28;20358;-88
2023/07/28 01:55:35;;;;;;;18.60;8.75;;;18.60;99.90;;;;;;5052433;22;20053;-89
2023/07/28 01:58:03;;;;;;;16.45;9.50;;;18.50;99.90;;;;;;5060153;28;20025;-89
2023/07/28 02:00:46;;;;;;;23.92;9.02;;;18.50;99.90;;;;;;5060179;28;20063;-89
2023/07/28 02:03:24;;;;;;;26.85;9.13;;;18.50;99.90;;;;;;5053155;28;20104;-90
2023/07/28 02:05:50;;;;;;;21.23;9.75;;;18.50;99.90;;;;;;5053594;28;20033;-90
2023/07/28 02:08:27;;;;;;;20.70;9.73;;;18.80;99.90;;;;;;5054182;28;20028;-89
2023/07/28 02:10:55;;;;;;;27.15;9.32;;;18.50;99.90;;;;;;5053348;28;20017;-89
2023/07/28 02:13:40;;;;;;;19.92;9.65;;;18.60;99.90;;;;;;5054061;28;20147;-89
2023/07/28 02:18:47;;;;;;;20.83;9.75;;;18.70;99.90;;;;;;5066806;22;20044;-89
2023/07/28 02:21:13;;;;;;;;;;;19.10;99.90;;;;;;5054333;28;20025;-89
2023/07/28 02:23:44;;;;;;;17.17;9.57;;;18.60;99.90;;;;;;5053489;28;19912;-89
2023/07/28 02:26:16;;;;;;;25.20;11.10;;;18.60;99.90;;;;;;5053423;28;20086;-89
2023/07/28 02:28:48;;;;;;;26.73;11.77;;;18.60;99.90;;;;;;5053256;28;20033;-89
2023/07/28 02:31:19;;;;;;;26.25;10.70;;;18.60;99.90;;;;;;5053497;28;20404;-89
2023/07/28 02:33:55;;;;;;;23.88;10.20;;;19.30;99.90;;;;;;5053326;28;20021;-90
2023/07/28 02:36:21;;;;;;;37.75;12.20;;;18.60;99.90;;;;;;5053449;28;20021;-89
2023/07/28 02:38:55;;;;;;;23.05;11.15;;;18.60;99.90;;;;;;5052429;28;20025;-88
2023/07/28 02:41:25;;;;;;;23.52;11.02;;;18.70;99.90;;;;;;5053483;28;20049;-89
2023/07/28 02:43:54;;;;;;;26.77;10.85;;;18.70;99.90;;;;;;5053114;28;20107;-89
2023/07/28 02:46:20;;;;;;;22.00;11.60;;;19.40;99.90;;;;;;5053002;28;20060;-89
2023/07/28 02:48:46;;;;;;;28.65;11.95;;;18.80;99.90;;;;;;5052890;28;20060;-89
2023/07/28 02:51:14;;;;;;;29.63;12.68;;;18.60;99.90;;;;;;5053297;28;20059;-89
2023/07/28 02:53:42;;;;;;;24.13;10.88;;;18.70;99.90;;;;;;5133981;22;20042;-89
2023/07/28 02:56:14;;;;;;;37.88;12.88;;;18.60;99.90;;;;;;5054655;28;20040;-89
2023/07/28 02:58:42;;;;;;;29.33;11.10;;;19.90;99.90;;;;;;5053007;28;20021;-89
2023/07/28 03:01:14;;;;;;;30.85;12.20;;;18.70;99.90;;;;;;5052628;28;20033;-88
2023/07/28 03:03:54;;;;;;;34.75;11.98;;;19.50;99.90;;;;;;5052985;28;20017;-89
2023/07/28 03:06:25;;;;;;;27.35;11.35;;;18.70;99.90;;;;;;5052428;28;20532;-87
2023/07/28 03:08:54;;;;;;;29.73;11.75;;;18.60;99.90;;;;;;5052900;28;20480;-89
2023/07/28 03:11:36;;;;;;;20.67;10.52;;;18.60;99.90;;;;;;5052915;28;20025;-89
2023/07/28 03:14:08;;;;;;;33.80;12.02;;;18.60;99.90;;;;;;5052787;28;20021;-89
2023/07/28 03:16:48;;;;;;;31.90;12.80;;;18.60;99.90;;;;;;5052888;28;20033;-89
2023/07/28 03:19:32;;;;;;;28.00;11.75;;;18.60;99.90;;;;;;5056424;28;20028;-89
2023/07/28 03:22:06;;;;;;;26.38;12.02;;;18.40;99.90;;;;;;5056296;28;20025;-89
2023/07/28 03:24:41;;;;;;;29.38;12.13;;;18.50;99.90;;;;;;5056404;28;20021;-89
2023/07/28 03:27:18;;;;;;;28.73;12.88;;;18.60;99.90;;;;;;5057139;28;20033;-90
2023/07/28 03:29:47;;;;;;;33.38;11.90;;;18.60;99.90;;;;;;5056919;28;20489;-89
2023/07/28 03:34:55;;;;;;;24.17;11.82;;;18.60;99.90;;;;;;5060802;22;20524;-90
2023/07/28 03:37:29;;;;;;;36.38;13.77;;;18.60;99.90;;;;;;5079517;23;20113;-89
2023/07/28 03:39:58;;;;;;;29.60;12.73;;;19.20;99.90;;;;;;5077062;28;20024;-89
2023/07/28 03:42:30;;;;;;;29.27;12.23;;;18.60;99.90;;;;;;5067443;22;20060;-90
2023/07/28 03:45:01;;;;;;;33.95;11.10;;;18.70;99.90;;;;;;5056693;28;20040;-89
2023/07/28 03:50:01;;;;;;;27.80;12.20;;;18.60;99.90;;;;;;5071354;22;20128;-89
2023/07/28 03:52:32;;;;;;;21.73;10.82;;;18.60;99.90;;;;;;5056838;28;20036;-89
2023/07/28 03:55:02;;;;;;;29.23;12.07;;;18.70;99.90;;;;;;5063441;22;20130;-89
2023/07/28 03:57:33;;;;;;;25.15;11.55;;;18.70;99.90;;;;;;5055749;28;20033;-89
2023/07/28 04:00:08;;;;;;;35.45;13.55;;;18.70;99.90;;;;;;5056257;28;20540;-90
2023/07/28 04:02:40;;;;;;;28.73;11.63;;;18.90;99.90;;;;;;5055668;28;20106;-89
2023/07/28 04:05:11;;;;;;;34.17;13.35;;;19.30;99.90;;;;;;5056354;28;20455;-90
2023/07/28 04:07:42;;;;;;;39.63;12.63;;;18.70;99.90;;;;;;5056363;28;20032;-90
2023/07/28 04:10:11;;;;;;;29.38;12.02;;;19.40;99.90;;;;;;5056155;28;20116;-89
2023/07/28 04:12:42;;;;;;;25.00;10.85;;;18.80;99.90;;;;;;5061626;28;20032;-89
2023/07/28 04:15:08;;;;;;;30.63;12.18;;;18.80;99.90;;;;;;5070788;22;20056;-89
2023/07/28 04:17:34;;;;;;;31.30;12.90;;;18.80;99.90;;;;;;5054841;28;20100;-89
2023/07/28 04:19:59;;;;;;;29.05;12.05;;;18.70;99.90;;;;;;5055757;28;20109;-88
2023/07/28 04:22:34;;;;;;;31.50;12.23;;;18.80;99.90;;;;;;5055541;28;20366;-89
2023/07/28 04:25:09;;;;;;;35.15;12.95;;;18.80;99.90;;;;;;5058147;28;20025;-89
2023/07/28 04:30:11;;;;;;;27.65;11.35;;;18.70;99.90;;;;;;5095838;22;20064;-88
2023/07/28 04:32:46;;;;;;;35.17;13.27;;;18.70;99.90;;;;;;5089710;22;20130;-90
2023/07/28 04:35:14;;;;;;;31.85;11.75;;;18.70;99.90;;;;;;5073505;28;20089;-90
2023/07/28 04:37:46;;;;;;;29.65;11.98;;;19.30;99.90;;;;;;5060613;28;20272;-90
2023/07/28 04:40:21;;;;;;;35.83;12.40;;;18.70;99.90;;;;;;5075715;28;20030;-89
2023/07/28 04:42:55;;;;;;;36.40;14.02;;;18.90;99.90;;;;;;5086030;28;20050;-89
2023/07/28 04:45:21;;;;;;;24.35;12.63;;;18.70;99.90;;;;;;5087380;28;20039;-90
2023/07/28 04:47:52;;;;;;;30.60;12.68;;;18.70;99.90;;;;;;5075783;28;20103;-90
2023/07/28 04:50:18;;;;;;;24.48;12.18;;;18.70;99.90;;;;;;5075856;28;20600;-90
2023/07/28 04:52:53;;;;;;;33.10;13.95;;;19.10;99.90;;;;;;5068665;28;20107;-90
2023/07/28 04:55:30;;;;;;;33.13;13.50;;;18.90;99.90;;;;;;5055473;28;20033;-90
2023/07/28 04:57:56;;;;;;;34.55;12.38;;;18.70;99.90;;;;;;5053403;28;20362;-90
2023/07/28 05:00:37;;;;;;;37.70;12.95;;;19.00;99.90;;;;;;5034139;28;20022;-89
2023/07/28 05:03:21;;;;;;;36.42;13.15;;;19.30;99.90;;;;;;5035487;28;20053;-90
2023/07/28 05:06:04;;;;;;;34.53;13.13;;;19.20;99.90;;;;;;5034743;28;20034;-89
2023/07/28 05:08:45;;;;;;;43.05;14.93;;;18.60;99.90;;;;;;5047449;28;20025;-89
2023/07/28 05:11:20;;;;;;;30.17;12.20;;;19.30;99.90;;;;;;5069412;22;20056;-89
2023/07/28 05:13:45;;;;;;;36.90;12.95;;;18.70;99.90;;;;;;5061513;22;20512;-89
2023/07/28 05:16:11;;;;;;;36.03;13.35;;;20.00;99.90;;;;;;5055524;28;20025;-88
2023/07/28 05:18:42;;;;;;;28.08;11.80;;;18.70;99.90;;;;;;5054712;28;20060;-89
2023/07/28 05:21:11;;;;;;;25.20;11.52;;;18.70;99.90;;;;;;5054363;28;20020;-89
2023/07/28 05:23:49;;;;;;;28.17;11.30;;;18.80;99.90;;;;;;5053608;28;20041;-89
2023/07/28 05:26:20;;;;;;;21.30;10.23;;;18.70;99.90;;;;;;5054665;28;20052;-89
2023/07/28 05:31:15;;;;;;;23.55;10.68;;;18.80;99.90;;;;;;5088612;22;20060;-89
2023/07/28 05:33:41;;;;;;;23.80;10.95;;;19.50;99.90;;;;;;5042146;28;20049;-89
2023/07/28 05:36:12;;;;;;;26.38;10.95;;;19.30;99.90;;;;;;5045755;28;20033;-89
2023/07/28 05:38:44;;;;;;;24.35;10.55;;;18.80;99.90;;;;;;5040589;28;20386;-89
2023/07/28 05:41:12;;;;;;;20.50;9.40;;;18.90;99.90;;;;;;5033910;28;20083;-88
2023/07/28 05:43:44;;;;;;;27.80;10.63;;;18.90;99.90;;;;;;5034254;28;20049;-90
2023/07/28 05:46:18;;;;;;;30.73;11.13;;;18.70;99.90;;;;;;5047202;28;20051;-90
2023/07/28 05:48:55;;;;;;;25.60;11.15;;;18.90;99.90;;;;;;5053810;28;20041;-92
2023/07/28 05:51:21;;;;;;;21.60;9.10;;;18.90;99.90;;;;;;5055075;28;20096;-90
2023/07/28 05:54:02;;;;;;;37.40;11.35;;;19.10;99.90;;;;;;5054746;28;20028;-89
2023/07/28 05:56:28;;;;;;;25.75;10.15;;;18.90;99.90;;;;;;5053858;28;20023;-90
2023/07/28 05:59:03;;;;;;;31.52;10.75;;;18.90;99.90;;;;;;5053947;28;20021;-89
2023/07/28 06:01:55;;;;;;;27.15;9.80;;;18.90;99.90;;;;;;5051635;28;20100;-89
2023/07/28 06:04:25;;;;;;;22.73;10.57;;;18.90;99.90;;;;;;5012192;28;20029;-89
2023/07/28 06:06:51;;;;;;;30.13;12.43;;;18.90;99.90;;;;;;5050429;28;20025;-90
2023/07/28 06:09:29;;;;;;;31.75;11.75;;;19.00;99.90;;;;;;5053650;28;20075;-89
2023/07/28 06:11:54;;;;;;;29.40;12.18;;;19.00;99.90;;;;;;5051008;28;20048;-89
2023/07/28 06:14:20;;;;;;;26.10;11.75;;;18.90;99.90;;;;;;5053176;28;20060;-89
2023/07/28 06:16:52;;;;;;;20.80;10.32;;;19.00;99.90;;;;;;5052886;28;20021;-89
2023/07/28 06:19:24;;;;;;;22.30;9.93;;;19.70;99.90;;;;;;5053306;28;20016;-89
2023/07/28 06:22:10;;;;;;;17.92;9.63;;;19.00;99.90;;;;;;5049972;28;20473;-89
2023/07/28 06:24:35;;;;;;;21.92;9.85;;;19.70;99.90;;;;;;5049624;28;20056;-89
2023/07/28 06:27:10;;;;;;;17.55;9.40;;;19.30;99.90;;;;;;5052825;28;20102;-89
2023/07/28 06:29:44;;;;;;;25.05;10.05;;;19.00;99.90;;;;;;5055562;28;20112;-89
2023/07/28 06:32:16;;;;;;;27.88;10.63;;;18.90;99.90;;;;;;5063513;28;20024;-88
2023/07/28 06:34:54;;;;;;;27.20;9.73;;;19.00;99.90;;;;;;5052809;28;20106;-88
2023/07/28 06:37:23;;;;;;;25.80;9.68;;;19.00;99.90;;;;;;5049402;28;20421;-88
2023/07/28 06:40:00;;;;;;;13.77;7.47;;;18.60;99.90;;;;;;5052675;28;20035;-90
2023/07/28 06:42:32;;;;;;;17.48;9.18;;;19.00;99.90;;;;;;5050733;28;20032;-88
2023/07/28 06:45:07;;;;;;;16.67;8.15;;;19.00;99.90;;;;;;5050411;28;20484;-87
2023/07/28 06:47:48;;;;;;;16.42;8.07;;;19.00;99.90;;;;;;5050534;28;20520;-88
2023/07/28 06:50:22;;;;;;;;;;;18.70;99.90;;;;;;5050009;28;20132;-87
2023/07/28 06:53:02;;;;;;;15.52;7.55;;;19.00;99.90;;;;;;5050596;28;20359;-87
2023/07/28 06:55:31;;;;;;;12.88;7.57;;;20.10;99.90;;;;;;5050526;28;20025;-87
2023/07/28 06:58:02;;;;;;;12.80;6.72;;;19.10;99.90;;;;;;5051015;28;20025;-86
2023/07/28 07:00:34;;;;;;;12.20;6.10;;;19.10;99.90;;;;;;5051675;28;20427;-86
2023/07/28 07:03:05;;;;;;;9.20;5.88;;;19.70;99.90;;;;;;5052412;28;20098;-87
2023/07/28 07:05:39;;;;;;;9.80;6.38;;;19.10;99.90;;;;;;5052133;28;20484;-89
2023/07/28 07:08:08;;;;;;;12.57;7.07;;;19.10;99.90;;;;;;5052499;28;20120;-89
2023/07/28 07:10:36;;;;;;;17.25;6.20;;;19.90;99.90;;;;;;5052390;28;20021;-88
2023/07/28 07:13:11;;;;;;;11.98;6.25;;;19.10;99.90;;;;;;5052118;28;20017;-88
2023/07/28 07:15:41;;;;;;;16.17;6.32;;;19.10;99.90;;;;;;5051954;28;20515;-90
2023/07/28 07:18:20;;;;;;;;;;;19.10;99.90;;;;;;5050821;28;20492;-86
2023/07/28 07:20:49;;;;;;;12.73;5.53;;;19.10;99.90;;;;;;5051365;28;19905;-86
2023/07/28 07:23:21;;;;;;;10.98;5.07;;;19.20;99.90;;;;;;5054041;28;20033;-91
2023/07/28 07:25:50;;;;;;;13.43;5.63;;;18.80;99.90;;;;;;5144467;22;20037;-87
2023/07/28 07:28:22;;;;;;;20.52;8.15;;;19.10;99.90;;;;;;5052519;28;20361;-84
2023/07/28 07:30:48;;;;;;;11.50;6.25;;;19.20;99.90;;;;;;5066081;28;20021;-84
2023/07/28 07:33:23;;;;;;;19.85;6.72;;;19.10;99.90;;;;;;5072646;28;20051;-88
2023/07/28 07:35:55;;;;;;;14.95;7.40;;;19.10;99.90;;;;;;5071577;28;20488;-88
2023/07/28 07:38:27;;;;;;;13.98;6.65;;;19.10;99.90;;;;;;5061933;22;20111;-88
2023/07/28 07:40:55;;;;;;;15.48;6.80;;;19.20;99.90;;;;;;5051359;28;20515;-88
2023/07/28 07:43:31;;;;;;;12.82;6.20;;;19.20;99.90;;;;;;5051957;28;20040;-86
2023/07/28 07:54:33;;;;;;;15.32;7.22;;;19.20;99.90;;;;;;5060776;22;20056;-86
2023/07/28 07:57:04;;;;;;;12.75;6.15;;;19.20;99.90;;;;;;5052469;28;20029;-87
2023/07/28 07:59:36;;;;;;;23.13;7.13;;;19.20;99.90;;;;;;5052222;28;20020;-88
2023/07/28 08:02:04;;;;;;;15.63;6.68;;;19.20;99.90;;;;;;5052538;28;20025;-91
2023/07/28 08:04:53;;;;;;;9.15;5.95;;;19.20;99.90;;;;;;5064796;28;20492;-94
2023/07/28 08:07:19;;;;;;;15.63;6.70;;;19.20;99.90;;;;;;5059845;28;20041;-88
2023/07/28 08:09:45;;;;;;;19.20;6.35;;;20.30;99.90;;;;;;5055061;28;20057;-89
2023/07/28 08:12:14;;;;;;;19.13;7.32;;;19.70;99.90;;;;;;5057227;28;20014;-92
2023/07/28 08:15:31;;;;;;;17.95;6.53;;;19.30;99.90;;;;;;5056373;28;20035;-89
2023/07/28 08:17:57;;;;;;;17.17;6.57;;;19.40;99.90;;;;;;5020244;28;20025;-88
2023/07/28 08:20:22;;;;;;;10.75;6.40;;;19.30;99.90;;;;;;5069729;28;20031;-88
2023/07/28 08:22:48;;;;;;;15.95;6.93;;;19.50;99.90;;;;;;5055985;28;20457;-88
2023/07/28 08:25:14;;;;;;;12.63;6.63;;;19.90;99.90;;;;;;5056595;28;20051;-88
2023/07/28 08:27:42;;;;;;;14.35;6.93;;;19.50;99.90;;;;;;5057047;28;20033;-89
2023/07/28 08:30:11;;;;;;;14.65;7.65;;;20.20;99.90;;;;;;5055723;28;20439;-87
2023/07/28 08:32:37;;;;;;;11.20;6.80;;;19.60;99.90;;;;;;5054668;28;20025;-85
2023/07/28 08:35:03;;;;;;;14.50;6.72;;;19.60;99.90;;;;;;5053639;28;20496;-87
2023/07/28 08:37:29;;;;;;;13.70;6.63;;;19.60;99.90;;;;;;5057282;28;20435;-86
2023/07/28 08:39:55;;;;;;;11.05;6.65;;;19.70;99.90;;;;;;5055009;28;20089;-86
2023/07/28 08:42:22;;;;;;;11.55;6.47;;;19.70;99.90;;;;;;5055163;28;20024;-86
2023/07/28 08:44:48;;;;;;;15.70;6.65;;;19.70;99.90;;;;;;5053753;28;20376;-86
2023/07/28 08:47:14;;;;;;;9.95;5.53;;;19.80;99.90;;;;;;5054364;28;20100;-87
2023/07/28 08:49:39;;;;;;;12.13;5.72;;;19.80;99.90;;;;;;5053948;28;20041;-89
2023/07/28 08:52:05;;;;;;;14.10;6.40;;;19.80;99.90;;;;;;5040694;28;20021;-89
2023/07/28 08:54:31;;;;;;;10.90;6.63;;;19.80;99.90;;;;;;5039309;28;20053;-92
2023/07/28 08:57:00;;;;;;;9.60;5.22;;;19.80;99.90;;;;;;5041010;28;20028;-87
2023/07/28 08:59:27;;;;;;;13.73;6.55;;;19.80;99.90;;;;;;5059715;28;20051;-93
2023/07/28 09:01:55;;;;;;;12.02;6.15;;;19.90;99.90;;;;;;5049819;28;20154;-93
2023/07/28 09:04:21;;;;;;;9.15;5.53;;;19.90;99.90;;;;;;5046874;28;20125;-89
2023/07/28 09:06:50;;;;;;;17.88;7.18;;;19.90;99.90;;;;;;5042962;28;20026;-88
2023/07/28 09:09:19;;;;;;;15.80;6.57;;;19.80;99.90;;;;;;5037855;28;20037;-89
2023/07/28 09:11:50;;;;;;;15.60;7.10;;;20.00;99.90;;;;;;5038367;28;20104;-93
2023/07/28 09:14:16;;;;;;;;;;;19.80;99.90;;;;;;5056290;28;20013;-93
2023/07/28 09:16:42;;;;;;;24.77;8.23;;;20.00;99.90;;;;;;5047747;28;19905;-91
2023/07/28 09:19:13;;;;;;;17.35;7.28;;;20.00;99.90;;;;;;5041449;28;20029;-91
2023/07/28 09:21:41;;;;;;;16.60;7.63;;;19.90;99.90;;;;;;5040750;28;20031;-91
2023/07/28 09:24:10;;;;;;;13.50;6.72;;;19.90;99.90;;;;;;5046973;28;20039;-91
2023/07/28 09:26:39;;;;;;;9.95;6.88;;;19.90;99.90;;;;;;5044255;28;20080;-90
2023/07/28 09:29:31;;;;;;;14.63;6.53;;;19.90;99.90;;;;;;5039213;28;20435;-90
2023/07/28 09:32:08;;;;;;;11.18;6.00;;;20.00;99.90;;;;;;5040056;28;20030;-91
2023/07/28 09:34:34;;;;;;;12.35;6.70;;;20.00;99.90;;;;;;5040832;28;20025;-90
2023/07/28 09:37:00;;;;;;;10.77;6.03;;;20.10;99.90;;;;;;5051176;28;20023;-91
2023/07/28 09:39:26;;;;;;;9.98;6.05;;;20.10;99.90;;;;;;5046232;28;20055;-95
2023/07/28 09:41:53;;;;;;;16.42;7.20;;;20.20;99.90;;;;;;5049428;28;20044;-91
2023/07/28 09:44:18;;;;;;;11.27;6.13;;;20.20;99.90;;;;;;5041528;28;20025;-91
2023/07/28 09:46:52;;;;;;;13.55;7.15;;;20.70;99.90;;;;;;5047133;28;20584;-90
2023/07/28 09:49:24;;;;;;;15.27;6.55;;;20.30;99.90;;;;;;5043423;28;20028;-91
2023/07/28 09:51:54;;;;;;;12.05;5.78;;;20.30;99.90;;;;;;5043900;28;20021;-91
2023/07/28 09:54:31;;;;;;;11.77;5.63;;;20.40;99.90;;;;;;5044664;28;20064;-92
2023/07/28 09:57:00;;;;;;;8.63;5.95;;;20.20;99.90;;;;;;5045728;28;20013;-93
2023/07/28 09:59:32;;;;;;;12.15;6.05;;;20.40;99.90;;;;;;5050841;28;20033;-90
2023/07/28 10:02:02;;;;;;;8.30;5.80;;;20.70;99.90;;;;;;5046394;28;20143;-91
2023/07/28 10:04:29;;;;;;;7.95;4.80;;;20.40;99.90;;;;;;5042888;28;20104;-90
2023/07/28 10:06:56;;;;;;;7.72;4.22;;;20.50;99.90;;;;;;5048511;28;20030;-93
2023/07/28 10:09:25;;;;;;;6.68;4.20;;;20.50;99.90;;;;;;5057884;28;20120;-87
2023/07/28 10:11:50;;;;;;;11.93;5.10;;;20.50;99.90;;;;;;5045294;28;20026;-89
2023/07/28 10:14:37;;;;;;;8.52;4.70;;;21.20;99.90;;;;;;5046112;28;20052;-93
2023/07/28 10:17:04;;;;;;;11.68;5.38;;;20.60;99.90;;;;;;5048876;28;20070;-90
2023/07/28 10:19:34;;;;;;;8.70;4.70;;;20.60;99.90;;;;;;5041584;28;20029;-92
2023/07/28 10:22:01;;;;;;;11.35;5.70;;;21.20;99.90;;;;;;5047700;28;20499;-91
2023/07/28 10:24:49;;;;;;;12.32;5.88;;;20.60;99.90;;;;;;5042975;28;20041;-89
2023/07/28 10:27:34;;;;;;;6.40;4.90;;;20.60;99.90;;;;;;5040540;28;20047;-95
2023/07/28 10:30:03;;;;;;;7.95;5.95;;;20.70;99.90;;;;;;5047770;28;20045;-93
2023/07/28 10:32:29;;;;;;;11.52;6.30;;;20.70;99.90;;;;;;5066212;28;20005;-93
2023/07/28 10:35:22;;;;;;;14.73;5.40;;;20.80;99.90;;;;;;5071612;28;20024;-95
2023/07/28 10:38:26;;;;;;;11.05;4.40;;;20.80;99.90;;;;;;5265531;22;20024;-94
2023/07/28 10:40:51;;;;;;;12.35;5.25;;;20.80;99.90;;;;;;5050357;28;20041;-92
2023/07/28 10:43:20;;;;;;;6.00;5.28;;;21.00;99.90;;;;;;5043166;28;20017;-94
2023/07/28 10:45:49;;;;;;;6.47;4.90;;;21.30;99.90;;;;;;5058658;28;20064;-92
2023/07/28 10:48:25;;;;;;;8.88;5.75;;;20.80;99.90;;;;;;5049158;28;20025;-93
2023/07/28 10:51:02;;;;;;;10.45;5.13;;;21.00;99.90;;;;;;5044838;28;20017;-94
2023/07/28 10:53:34;;;;;;;9.68;5.70;;;21.00;99.90;;;;;;5044146;28;20029;-94
2023/07/28 10:58:36;;;;;;;7.00;5.70;;;20.90;99.90;;;;;;5133387;22;20053;-91
2023/07/28 11:01:04;;;;;;;6.28;5.00;;;20.90;99.90;;;;;;5065765;28;20039;-89
2023/07/28 11:03:43;;;;;;;7.65;5.72;;;21.00;99.90;;;;;;5050809;28;20029;-92
2023/07/28 11:06:19;;;;;;;6.50;5.03;;;21.10;99.90;;;;;;5051934;28;20473;-90
2023/07/28 11:08:44;;;;;;;6.18;4.38;;;21.10;99.90;;;;;;5058282;28;20086;-91
2023/07/28 11:11:23;;;;;;;7.43;5.10;;;21.60;99.90;;;;;;5057766;28;20025;-88
2023/07/28 11:13:49;;;;;;;7.88;4.40;;;21.10;99.90;;;;;;5057480;28;20052;-90
2023/07/28 11:16:15;;;;;;;5.35;4.82;;;21.40;99.90;;;;;;5066459;28;20388;-90
2023/07/28 11:18:40;;;;;;;7.50;5.70;;;21.20;99.90;;;;;;5058001;28;20508;-93
2023/07/28 11:21:06;;;;;;;9.98;6.60;;;20.80;99.90;;;;;;5064882;28;20021;-91
2023/07/28 11:23:34;;;;;;;14.10;6.65;;;21.60;99.90;;;;;;5063802;28;20090;-93
2023/07/28 11:26:02;;;;;;;11.25;8.20;;;21.20;99.90;;;;;;5062241;28;20025;-90
2023/07/28 11:28:28;;;;;;;9.57;6.97;;;21.20;99.90;;;;;;5061587;28;20033;-91
2023/07/28 11:30:54;;;;;;;8.65;7.05;;;21.30;99.90;;;;;;5060995;28;20032;-90
2023/07/28 11:33:20;;;;;;;10.05;7.38;;;21.30;99.90;;;;;;5068287;28;20506;-93
2023/07/28 11:35:47;;;;;;;9.63;6.55;;;21.30;99.90;;;;;;5060566;28;20028;-95
2023/07/28 11:38:14;;;;;;;9.63;8.30;;;21.30;99.90;;;;;;5067766;28;20479;-85
2023/07/28 11:40:41;;;;;;;9.48;8.48;;;21.30;99.90;;;;;;5061464;28;20115;-89
2023/07/28 11:43:07;;;;;;;11.25;10.15;;;21.40;99.90;;;;;;5065356;28;20029;-86
2023/07/28 11:45:33;;;;;;;16.73;10.95;;;21.90;99.90;;;;;;5073179;28;20032;-86
2023/07/28 11:48:05;;;;;;;13.38;10.38;;;21.50;99.90;;;;;;5072520;28;20028;-86
2023/07/28 11:50:37;;;;;;;12.15;10.85;;;21.40;99.90;;;;;;5055185;28;20036;-87
2023/07/28 11:53:03;;;;;;;20.83;12.38;;;21.50;99.90;;;;;;5055860;28;20017;-87
2023/07/28 11:55:29;;;;;;;15.15;11.85;;;21.40;99.90;;;;;;5072807;28;20032;-86
2023/07/28 11:57:55;;;;;;;13.75;10.52;;;21.40;99.90;;;;;;5079172;28;20511;-87
2023/07/28 12:00:36;;;;;;;14.27;10.07;;;21.40;99.90;;;;;;5070594;28;20021;-87
2023/07/28 12:03:10;;;;;;;10.57;9.50;;;21.40;99.90;;;;;;5068728;28;20043;-86
2023/07/28 12:05:40;;;;;;;11.70;9.48;;;21.40;99.90;;;;;;5057815;28;20035;-86
2023/07/28 12:08:07;;;;;;;;;;;21.30;99.90;;;;;;5052915;28;20028;-86
2023/07/28 12:10:33;;;;;;;11.25;9.00;;;21.40;99.90;;;;;;5054021;28;19912;-85
2023/07/28 12:13:09;;;;;;;6.82;6.05;;;21.40;99.90;;;;;;5054653;28;20029;-85
2023/07/28 12:15:40;;;;;;;10.70;6.05;;;21.40;99.90;;;;;;5053730;28;20036;-85
2023/07/28 12:18:28;;;;;;;8.68;6.80;;;21.70;99.90;;;;;;5052497;28;20029;-85
2023/07/28 12:20:55;;;;;;;9.20;5.57;;;21.30;99.90;;;;;;5055322;28;20021;-85
2023/07/28 12:23:21;;;;;;;7.53;4.80;;;21.30;99.90;;;;;;5055007;28;20108;-85
2023/07/28 12:25:48;;;;;;;9.88;3.70;;;21.30;99.90;;;;;;5054741;28;20021;-85
2023/07/28 12:28:14;;;;;;;4.65;3.67;;;21.40;99.90;;;;;;5055294;28;20036;-85
2023/07/28 12:30:40;;;;;;;7.65;4.50;;;21.30;99.90;;;;;;5054697;28;20033;-85
2023/07/28 12:33:06;;;;;;;7.28;5.38;;;21.40;99.90;;;;;;5055474;28;20120;-85
2023/07/28 12:35:34;;;;;;;7.15;5.07;;;21.40;99.90;;;;;;5054809;28;20107;-85
2023/07/28 12:38:01;;;;;;;7.60;5.35;;;21.40;99.90;;;;;;5054757;28;20108;-85
2023/07/28 12:40:29;;;;;;;6.50;5.78;;;21.50;99.90;;;;;;5055334;28;20025;-85
2023/07/28 12:42:55;;;;;;;8.27;7.47;;;21.50;99.90;;;;;;5054490;28;20021;-85
2023/07/28 12:45:21;;;;;;;13.68;9.43;;;21.60;99.90;;;;;;5055120;28;20119;-85
2023/07/28 12:47:47;;;;;;;11.13;9.52;;;21.70;99.90;;;;;;5054930;28;20104;-85
2023/07/28 12:50:12;;;;;;;10.93;9.80;;;22.10;99.90;;;;;;5060446;28;20041;-86
2023/07/28 12:52:41;;;;;;;13.80;11.02;;;21.70;99.90;;;;;;5058882;28;20453;-85
2023/07/28 12:55:07;;;;;;;8.70;7.90;;;22.20;99.90;;;;;;5053855;28;20568;-84
2023/07/28 12:57:33;;;;;;;11.90;6.97;;;21.70;99.90;;;;;;5054213;28;20052;-83
2023/07/28 13:00:12;;;;;;;8.57;7.53;;;21.80;99.90;;;;;;5061003;22;20052;-85
2023/07/28 13:02:41;;;;;;;10.65;7.97;;;21.90;99.90;;;;;;5054307;28;20028;-84
2023/07/28 13:05:12;;;;;;;9.90;8.77;;;21.80;99.90;;;;;;5052812;28;20028;-84
2023/07/28 13:07:41;;;;;;;10.00;8.70;;;21.90;99.90;;;;;;5051587;22;20064;-85
2023/07/28 13:10:12;;;;;;;10.00;9.00;;;21.90;99.90;;;;;;5034738;28;20029;-84
2023/07/28 13:15:09;;;;;;;11.98;10.50;;;22.00;99.90;;;;;;5050211;22;20064;-86
2023/07/28 13:17:36;;;;;;;13.43;11.15;;;21.90;99.90;;;;;;5047831;22;20449;-87
2023/07/28 13:20:04;;;;;;;12.60;11.40;;;22.00;99.90;;;;;;5051867;28;20036;-88
2023/07/28 13:22:30;;;;;;;12.57;10.55;;;21.90;99.90;;;;;;5049121;28;20021;-87
2023/07/28 13:25:02;;;;;;;11.40;9.77;;;21.90;99.90;;;;;;5053545;28;20194;-87
2023/07/28 13:27:28;;;;;;;13.60;11.07;;;21.90;99.90;;;;;;5060270;28;20037;-87
2023/07/28 13:30:02;;;;;;;13.80;11.18;;;21.30;99.90;;;;;;5099518;22;20052;-85